Terminal Aerodrome Forecast
Issued by NWS Billings, MT

Home | Current Version | Previous Version | Text Only | Print | Product List | Glossary On
Versions: 1 2 3 4 5 6 7 8 9 10 11 12 13 14 15 16 17 18 19 20 21 22 23 24 25 26 27 28 29 30 31
316
FTUS45 KBYZ 231734
TAFBIL
TAF
KBIL 231734Z 2318/2418 VRB06KT P6SM SCT100 BKN150
     FM232300 26011KT P6SM VCTS SCT070CB BKN100
     FM240100 33015KT P6SM VCSH BKN050
     FM240500 27009KT P6SM SCT060=

USA.gov is the U.S. government's official web portal to all federal, state and local government web resources and services.